createdAt,value
2022-11-17T00:02:14.202Z,6.27
2022-11-17T00:04:47.581Z,6.30
2022-11-17T00:07:20.414Z,6.31
2022-11-17T00:09:53.285Z,6.33
2022-11-17T00:12:44.116Z,6.34
2022-11-17T00:15:18.534Z,6.36
2022-11-17T00:17:54.045Z,6.35
2022-11-17T00:20:44.721Z,6.29
2022-11-17T00:23:17.548Z,6.28
2022-11-17T00:25:50.518Z,6.25
2022-11-17T00:28:23.221Z,6.24
2022-11-17T00:31:34.453Z,6.23
2022-11-17T00:34:07.587Z,6.26
2022-11-17T00:36:50.550Z,6.30
2022-11-17T00:39:24.683Z,6.34
2022-11-17T00:41:56.933Z,6.33
2022-11-17T00:44:30.287Z,6.35
2022-11-17T00:47:03.134Z,6.39
2022-11-17T00:49:37.724Z,6.43
2022-11-17T00:52:12.722Z,6.45
2022-11-17T00:54:45.580Z,6.46
2022-11-17T00:57:18.994Z,6.47
2022-11-17T00:59:52.664Z,6.41
2022-11-17T01:02:25.639Z,6.38
2022-11-17T01:04:58.523Z,6.33
2022-11-17T01:07:31.446Z,6.33
2022-11-17T01:10:05.167Z,6.36
2022-11-17T01:12:38.148Z,6.33
2022-11-17T01:15:12.206Z,6.28
2022-11-17T01:17:45.113Z,6.28
2022-11-17T01:20:18.235Z,6.27
2022-11-17T01:22:52.340Z,6.26
2022-11-17T01:25:25.250Z,6.25
2022-11-17T01:27:58.219Z,6.24
2022-11-17T01:30:31.699Z,6.25
2022-11-17T01:33:04.692Z,6.26
2022-11-17T01:35:38.151Z,6.27
2022-11-17T01:38:11.395Z,6.31
2022-11-17T01:40:44.466Z,6.37
2022-11-17T01:43:17.650Z,6.41
2022-11-17T01:45:50.916Z,6.44
2022-11-17T01:48:24.606Z,6.47
2022-11-17T01:50:57.378Z,6.50
2022-11-17T01:53:31.685Z,6.51
2022-11-17T01:56:06.305Z,6.54
2022-11-17T01:58:47.239Z,6.58
2022-11-17T02:01:20.240Z,6.58
2022-11-17T02:03:53.431Z,6.59
2022-11-17T02:06:33.538Z,6.61
2022-11-17T02:09:06.547Z,6.62
2022-11-17T02:11:39.819Z,6.63
2022-11-17T02:14:13.804Z,6.65
2022-11-17T02:16:46.992Z,6.68
2022-11-17T02:19:20.169Z,6.69
2022-11-17T02:22:38.293Z,6.69
2022-11-17T02:25:36.496Z,6.71
2022-11-17T02:28:16.840Z,6.69
2022-11-17T02:31:07.143Z,6.66
2022-11-17T02:34:06.215Z,6.65
2022-11-17T02:36:49.359Z,6.66
2022-11-17T02:39:29.213Z,6.66
2022-11-17T02:42:11.072Z,6.65
2022-11-17T02:45:03.046Z,6.63
2022-11-17T02:47:37.461Z,6.64
2022-11-17T02:50:12.847Z,6.63
2022-11-17T02:52:45.668Z,6.64
2022-11-17T02:55:18.328Z,6.65
2022-11-17T02:57:52.321Z,6.68
2022-11-17T03:00:25.594Z,6.69
2022-11-17T03:03:37.210Z,6.70
2022-11-17T03:06:32.587Z,6.71
2022-11-17T03:09:22.576Z,6.74
2022-11-17T03:12:12.108Z,6.77
2022-11-17T03:15:09.067Z,6.79
2022-11-17T03:18:22.502Z,6.79
2022-11-17T03:21:00.668Z,6.78
2022-11-17T03:23:44.082Z,6.74
2022-11-17T03:26:22.034Z,6.66
2022-11-17T03:28:57.036Z,6.59
2022-11-17T03:31:30.575Z,6.56
2022-11-17T03:34:06.747Z,6.58
2022-11-17T03:36:43.613Z,6.57
2022-11-17T03:39:27.196Z,6.60
2022-11-17T03:42:10.100Z,6.64
2022-11-17T03:44:46.734Z,6.68
2022-11-17T03:47:22.284Z,6.67
2022-11-17T03:50:11.166Z,6.64
2022-11-17T03:52:44.983Z,6.64
2022-11-17T03:55:18.247Z,6.65
2022-11-17T03:58:04.880Z,6.69
2022-11-17T04:00:39.181Z,6.75
2022-11-17T04:03:12.161Z,6.76
2022-11-17T04:05:46.975Z,6.77
2022-11-17T04:08:22.212Z,6.80
2022-11-17T04:11:12.772Z,6.82
2022-11-17T04:14:04.858Z,6.78
2022-11-17T04:16:37.809Z,6.76
2022-11-17T04:19:11.268Z,6.76
2022-11-17T04:21:44.808Z,6.76
2022-11-17T04:24:18.666Z,6.78
2022-11-17T04:27:08.832Z,6.77
2022-11-17T04:29:41.629Z,6.80
2022-11-17T04:32:15.088Z,6.76
2022-11-17T04:34:48.541Z,6.75
2022-11-17T04:37:21.316Z,6.75
2022-11-17T04:39:54.620Z,6.77
2022-11-17T04:42:27.367Z,6.72
2022-11-17T04:45:00.275Z,6.72
2022-11-17T04:47:33.721Z,6.75
2022-11-17T04:50:08.082Z,6.77
2022-11-17T04:52:41.225Z,6.84
2022-11-17T04:55:15.171Z,6.88
2022-11-17T04:57:48.151Z,6.92
2022-11-17T05:00:21.434Z,6.93
2022-11-17T05:02:54.563Z,6.99
2022-11-17T05:05:28.019Z,7.01
2022-11-17T05:08:01.661Z,7.05
2022-11-17T05:10:52.807Z,7.10
2022-11-17T05:13:26.511Z,7.14
2022-11-17T05:16:18.035Z,7.17
2022-11-17T05:18:51.143Z,7.22
2022-11-17T05:21:24.383Z,7.27
2022-11-17T05:23:57.934Z,7.31
2022-11-17T05:26:34.303Z,7.37
2022-11-17T05:29:10.005Z,7.46
2022-11-17T05:31:43.367Z,7.53
2022-11-17T05:34:21.150Z,7.58
2022-11-17T05:36:54.660Z,7.65
2022-11-17T05:39:27.743Z,7.72
2022-11-17T05:42:00.855Z,7.75
2022-11-17T05:44:34.262Z,7.77
2022-11-17T05:47:07.374Z,7.82
2022-11-17T05:49:41.699Z,7.88
2022-11-17T05:52:14.790Z,7.93
2022-11-17T05:54:48.028Z,7.95
2022-11-17T05:57:26.004Z,7.97
2022-11-17T06:00:04.799Z,8.02
2022-11-17T06:02:46.473Z,8.03
2022-11-17T06:05:20.542Z,8.08
2022-11-17T06:07:56.247Z,8.12
2022-11-17T06:10:29.812Z,8.15
2022-11-17T06:13:03.799Z,8.18
2022-11-17T06:15:37.530Z,8.15
2022-11-17T06:18:13.423Z,8.17
2022-11-17T06:20:49.348Z,8.18
2022-11-17T06:23:24.351Z,8.19
2022-11-17T06:25:57.262Z,8.23
2022-11-17T06:28:31.492Z,8.27
2022-11-17T06:31:04.745Z,8.34
2022-11-17T06:33:39.437Z,8.43
2022-11-17T06:36:11.928Z,8.49
2022-11-17T06:38:44.986Z,8.54
2022-11-17T06:41:18.044Z,8.61
2022-11-17T06:43:50.931Z,8.66
2022-11-17T06:46:23.708Z,8.69
2022-11-17T06:48:57.646Z,8.77
2022-11-17T06:51:30.578Z,8.84
2022-11-17T06:54:05.649Z,8.90
2022-11-17T06:56:38.969Z,9.01
2022-11-17T06:59:12.031Z,9.09
2022-11-17T07:01:45.522Z,9.12
2022-11-17T07:04:18.675Z,9.16
2022-11-17T07:06:52.357Z,9.18
2022-11-17T07:09:26.543Z,9.19
2022-11-17T07:12:00.087Z,9.21
2022-11-17T07:14:33.892Z,9.24
2022-11-17T07:17:08.096Z,9.27
2022-11-17T07:19:41.048Z,9.30
2022-11-17T07:22:14.334Z,9.30
2022-11-17T07:24:47.582Z,9.31
2022-11-17T07:27:20.710Z,9.32
2022-11-17T07:29:53.651Z,9.32
2022-11-17T07:32:27.268Z,9.30
2022-11-17T07:35:02.303Z,9.29
2022-11-17T07:37:36.176Z,9.31
2022-11-17T07:40:10.990Z,9.32
2022-11-17T07:42:46.673Z,9.30
2022-11-17T07:45:19.564Z,9.28
2022-11-17T07:47:59.783Z,9.23
2022-11-17T07:50:33.508Z,9.18
2022-11-17T07:53:06.458Z,9.15
2022-11-17T07:55:39.825Z,9.12
2022-11-17T07:58:12.856Z,9.09
2022-11-17T08:00:46.101Z,9.08
2022-11-17T08:03:19.287Z,9.06
2022-11-17T08:05:53.819Z,9.04
2022-11-17T08:08:26.668Z,9.02
2022-11-17T08:11:06.356Z,9.01
2022-11-17T08:13:41.528Z,9.01
2022-11-17T08:16:15.255Z,9.01
2022-11-17T08:18:52.323Z,9.03
2022-11-17T08:21:23.981Z,9.03
2022-11-17T08:23:57.156Z,9.03
2022-11-17T08:26:30.175Z,9.02
2022-11-17T08:29:02.980Z,9.00
2022-11-17T08:31:36.618Z,8.97
2022-11-17T08:34:09.643Z,8.91
2022-11-17T08:36:42.803Z,8.90
2022-11-17T08:39:16.141Z,8.88
2022-11-17T08:41:49.212Z,8.90
2022-11-17T08:44:22.252Z,8.93
2022-11-17T08:46:55.392Z,8.92
2022-11-17T08:49:28.193Z,8.93
2022-11-17T08:52:01.304Z,8.93
2022-11-17T08:54:35.107Z,8.94
2022-11-17T08:57:08.105Z,8.93
2022-11-17T08:59:40.983Z,8.86
2022-11-17T09:02:15.206Z,8.79
2022-11-17T09:04:48.704Z,8.72
2022-11-17T09:07:22.396Z,8.66
2022-11-17T09:09:55.536Z,8.61
2022-11-17T09:12:28.992Z,8.55
2022-11-17T09:15:02.227Z,8.45
2022-11-17T09:17:36.230Z,8.29
2022-11-17T09:20:09.388Z,8.14
2022-11-17T09:22:43.033Z,8.02
2022-11-17T09:25:17.201Z,7.90
2022-11-17T09:27:52.739Z,7.84
2022-11-17T09:30:26.191Z,7.82
2022-11-17T09:33:00.496Z,7.85
2022-11-17T09:35:33.490Z,7.86
2022-11-17T09:38:06.474Z,7.85
2022-11-17T09:40:41.695Z,7.76
2022-11-17T09:43:21.958Z,7.69
2022-11-17T09:46:01.903Z,7.65
2022-11-17T09:49:15.050Z,7.66
2022-11-17T09:51:49.768Z,7.70
2022-11-17T09:54:34.305Z,7.70
2022-11-17T09:57:08.861Z,7.69
2022-11-17T09:59:41.911Z,7.67
2022-11-17T10:02:14.768Z,7.63
2022-11-17T10:04:48.673Z,7.62
2022-11-17T10:07:22.477Z,7.65
2022-11-17T10:09:57.503Z,7.64
2022-11-17T10:12:39.030Z,7.59
2022-11-17T10:15:37.338Z,7.57
2022-11-17T10:18:19.181Z,7.55
2022-11-17T10:20:53.805Z,7.54
2022-11-17T10:23:30.002Z,7.53
2022-11-17T10:26:10.334Z,7.48
2022-11-17T10:28:43.795Z,7.43
2022-11-17T10:31:20.079Z,7.41
2022-11-17T10:33:53.503Z,7.43
2022-11-17T10:36:31.793Z,7.47
2022-11-17T10:39:04.946Z,7.50
2022-11-17T10:41:42.218Z,7.52
2022-11-17T10:44:30.296Z,7.54
2022-11-17T10:47:05.280Z,7.57
2022-11-17T10:49:40.157Z,7.59
2022-11-17T10:52:20.133Z,7.60
2022-11-17T10:54:53.566Z,7.60
2022-11-17T10:57:28.276Z,7.62
2022-11-17T11:00:01.414Z,7.65
2022-11-17T11:02:41.656Z,7.63
2022-11-17T11:05:21.489Z,7.58
2022-11-17T11:08:18.043Z,7.60
2022-11-17T11:10:54.006Z,7.64
2022-11-17T11:13:47.358Z,7.67
2022-11-17T11:16:20.530Z,7.68
2022-11-17T11:18:54.842Z,7.68
2022-11-17T11:21:56.196Z,7.70
2022-11-17T11:24:40.265Z,7.70
2022-11-17T11:27:32.793Z,7.72
2022-11-17T11:30:13.070Z,7.73
2022-11-17T11:33:14.798Z,7.77
2022-11-17T11:36:20.815Z,7.81
2022-11-17T11:39:16.466Z,7.85
2022-11-17T11:42:26.385Z,7.90
2022-11-17T11:45:16.015Z,7.94
2022-11-17T11:48:08.538Z,7.99
2022-11-17T11:51:22.141Z,8.02
2022-11-17T11:54:20.609Z,8.03
2022-11-17T11:56:53.919Z,8.05
2022-11-17T11:59:45.033Z,8.08
2022-11-17T12:02:28.698Z,8.11
2022-11-17T12:05:36.661Z,8.12
2022-11-17T12:08:20.859Z,8.14
2022-11-17T12:11:10.086Z,8.16
2022-11-17T12:13:48.462Z,8.18
2022-11-17T12:16:31.156Z,8.18
2022-11-17T12:19:06.677Z,8.18
2022-11-17T12:21:39.548Z,8.21
2022-11-17T12:24:22.270Z,8.21
2022-11-17T12:26:55.302Z,8.19
2022-11-17T12:29:32.058Z,8.19
2022-11-17T12:32:05.149Z,8.17
2022-11-17T12:34:39.674Z,8.16
2022-11-17T12:37:26.926Z,8.17
2022-11-17T12:40:10.575Z,8.19
2022-11-17T12:42:48.218Z,8.21
2022-11-17T12:45:21.391Z,8.25
2022-11-17T12:48:18.302Z,8.26
2022-11-17T12:50:39.206Z,8.24
2022-11-17T12:53:19.898Z,8.21
2022-11-17T12:56:01.226Z,8.18
2022-11-17T12:58:54.311Z,8.17
2022-11-17T13:02:05.902Z,8.13
2022-11-17T13:04:49.685Z,8.13
2022-11-17T13:07:27.805Z,8.12
2022-11-17T13:10:03.192Z,8.11
2022-11-17T13:12:37.523Z,8.13
2022-11-17T13:15:16.950Z,8.13
2022-11-17T13:17:52.554Z,8.14
2022-11-17T13:20:31.803Z,8.14
2022-11-17T13:23:09.280Z,8.11
2022-11-17T13:25:42.352Z,8.06
2022-11-17T13:28:33.008Z,8.00
2022-11-17T13:31:06.153Z,7.93
2022-11-17T13:33:40.824Z,7.87
2022-11-17T13:36:23.378Z,7.81
2022-11-17T13:38:59.234Z,7.78
2022-11-17T13:41:37.788Z,7.77
2022-11-17T13:44:20.011Z,7.77
2022-11-17T13:46:52.941Z,7.76
2022-11-17T13:49:38.685Z,7.77
2022-11-17T13:52:39.348Z,7.76
2022-11-17T13:55:13.269Z,7.75
2022-11-17T13:57:59.645Z,7.73
2022-11-17T14:00:33.896Z,7.69
2022-11-17T14:03:09.806Z,7.65
2022-11-17T14:05:48.177Z,7.60
2022-11-17T14:08:30.656Z,7.56
2022-11-17T14:11:15.636Z,7.51
2022-11-17T14:13:54.276Z,7.49
2022-11-17T14:16:32.244Z,7.50
2022-11-17T14:19:22.269Z,7.50
2022-11-17T14:22:05.408Z,7.52
2022-11-17T14:24:39.005Z,7.54
2022-11-17T14:27:35.230Z,7.57
2022-11-17T14:30:11.165Z,7.61
2022-11-17T14:32:44.658Z,7.66
2022-11-17T14:37:51.218Z,7.70
2022-11-17T14:40:24.222Z,7.71
2022-11-17T14:42:57.323Z,7.72
2022-11-17T14:45:31.148Z,7.75
2022-11-17T14:48:06.868Z,7.77
2022-11-17T14:50:40.616Z,7.77
2022-11-17T14:53:13.468Z,7.78
2022-11-17T14:55:47.972Z,7.83
2022-11-17T14:58:21.160Z,7.87
2022-11-17T15:00:54.509Z,7.88
2022-11-17T15:03:28.611Z,7.89
2022-11-17T15:06:03.385Z,7.89
2022-11-17T15:08:36.769Z,7.87
2022-11-17T15:11:09.603Z,7.86
2022-11-17T15:13:42.858Z,7.88
2022-11-17T15:16:16.043Z,7.94
2022-11-17T15:18:50.362Z,7.99
2022-11-17T15:21:23.376Z,7.99
2022-11-17T15:23:56.334Z,8.00
2022-11-17T15:26:29.219Z,7.99
2022-11-17T15:29:02.260Z,7.97
2022-11-17T15:31:35.640Z,7.97
2022-11-17T15:34:10.124Z,7.99
2022-11-17T15:36:42.310Z,7.97
2022-11-17T15:39:15.508Z,7.96
2022-11-17T15:41:51.043Z,7.98
2022-11-17T15:44:24.840Z,7.99
2022-11-17T15:46:57.887Z,7.99
2022-11-17T15:49:30.754Z,7.99
2022-11-17T15:52:03.808Z,7.96
2022-11-17T15:54:37.462Z,7.96
2022-11-17T15:57:11.079Z,7.94
2022-11-17T15:59:44.481Z,7.91
2022-11-17T16:02:17.736Z,7.86
2022-11-17T16:04:50.957Z,7.84
2022-11-17T16:07:24.438Z,7.83
2022-11-17T16:09:57.604Z,7.78
2022-11-17T16:12:30.635Z,7.78
2022-11-17T16:15:05.506Z,7.78
2022-11-17T16:17:38.721Z,7.75
2022-11-17T16:20:13.337Z,7.70
2022-11-17T16:22:46.634Z,7.72
2022-11-17T16:25:19.387Z,7.73
2022-11-17T16:27:52.409Z,7.73
2022-11-17T16:30:34.221Z,7.72
2022-11-17T16:33:04.894Z,7.71
2022-11-17T16:35:38.942Z,7.67
2022-11-17T16:38:18.567Z,7.66
2022-11-17T16:40:51.627Z,7.67
2022-11-17T16:43:24.745Z,7.71
2022-11-17T16:45:58.150Z,7.73
2022-11-17T16:48:34.793Z,7.76
2022-11-17T16:51:09.478Z,7.76
2022-11-17T16:53:42.512Z,7.79
2022-11-17T16:56:15.723Z,7.75
2022-11-17T16:58:50.707Z,7.71
2022-11-17T17:01:26.755Z,7.66
2022-11-17T17:04:06.776Z,7.63
2022-11-17T17:06:46.310Z,7.61
2022-11-17T17:09:24.709Z,7.62
2022-11-17T17:11:54.179Z,7.63
2022-11-17T17:14:28.304Z,7.61
2022-11-17T17:17:01.896Z,7.60
2022-11-17T17:19:34.858Z,7.61
2022-11-17T17:22:08.130Z,7.64
2022-11-17T17:24:41.912Z,7.66
2022-11-17T17:27:14.867Z,7.67
2022-11-17T17:29:48.476Z,7.66
2022-11-17T17:32:21.383Z,7.55
2022-11-17T17:34:54.947Z,7.45
2022-11-17T17:37:27.910Z,7.41
2022-11-17T17:40:01.214Z,7.41
2022-11-17T17:42:34.505Z,7.42
2022-11-17T17:45:08.382Z,7.43
2022-11-17T17:47:42.341Z,7.46
2022-11-17T17:50:15.444Z,7.49
2022-11-17T17:52:48.840Z,7.51
2022-11-17T17:55:21.815Z,7.51
2022-11-17T17:57:55.045Z,7.51
2022-11-17T18:00:28.068Z,7.49
2022-11-17T18:03:02.770Z,7.52
2022-11-17T18:05:39.957Z,7.51
2022-11-17T18:08:13.394Z,7.51
2022-11-17T18:10:47.122Z,7.52
2022-11-17T18:13:21.059Z,7.52
2022-11-17T18:15:54.065Z,7.51
2022-11-17T18:18:27.059Z,7.50
2022-11-17T18:21:09.112Z,7.49
2022-11-17T18:23:43.222Z,7.47
2022-11-17T18:26:20.591Z,7.41
2022-11-17T18:28:57.640Z,7.40
2022-11-17T18:31:35.013Z,7.38
2022-11-17T18:34:19.089Z,7.39
2022-11-17T18:36:56.728Z,7.39
2022-11-17T18:39:31.811Z,7.40
2022-11-17T18:42:05.095Z,7.40
2022-11-17T18:44:39.482Z,7.41
2022-11-17T18:47:14.293Z,7.41
2022-11-17T18:49:47.678Z,7.41
2022-11-17T18:52:20.790Z,7.40
2022-11-17T18:54:54.091Z,7.43
2022-11-17T18:57:28.002Z,7.44
2022-11-17T19:00:00.718Z,7.47
2022-11-17T19:02:33.988Z,7.49
2022-11-17T19:05:07.695Z,7.49
2022-11-17T19:07:40.761Z,7.49
2022-11-17T19:10:13.868Z,7.46
2022-11-17T19:12:46.881Z,7.46
2022-11-17T19:15:20.063Z,7.46
2022-11-17T19:17:53.222Z,7.45
2022-11-17T19:20:27.425Z,7.46
2022-11-17T19:23:00.458Z,7.48
2022-11-17T19:25:36.042Z,7.46
2022-11-17T19:28:12.716Z,7.46
2022-11-17T19:30:46.202Z,7.42
2022-11-17T19:33:19.839Z,7.44
2022-11-17T19:35:52.643Z,7.43
2022-11-17T19:38:25.684Z,7.44
2022-11-17T19:41:05.478Z,7.42
2022-11-17T19:43:44.876Z,7.41
2022-11-17T19:46:17.032Z,7.40
2022-11-17T19:48:50.463Z,7.39
2022-11-17T19:51:29.474Z,7.38
2022-11-17T19:54:08.378Z,7.37
2022-11-17T19:56:41.373Z,7.37
2022-11-17T19:59:16.667Z,7.38
2022-11-17T20:01:49.066Z,7.38
2022-11-17T20:04:22.642Z,7.38
2022-11-17T20:06:55.785Z,7.39
2022-11-17T20:09:28.834Z,7.38
2022-11-17T20:12:01.809Z,7.38
2022-11-17T20:14:36.332Z,7.36
2022-11-17T20:17:09.832Z,7.36
2022-11-17T20:19:43.742Z,7.39
2022-11-17T20:22:17.930Z,7.43
2022-11-17T20:24:50.035Z,7.48
2022-11-17T20:27:23.169Z,7.53
2022-11-17T20:29:56.094Z,7.57
2022-11-17T20:32:35.187Z,7.66
2022-11-17T20:35:08.792Z,7.71
2022-11-17T20:37:42.086Z,7.77
2022-11-17T20:40:15.508Z,7.83
2022-11-17T20:42:48.345Z,7.89
2022-11-17T20:45:21.263Z,7.96
2022-11-17T20:47:54.546Z,8.06
2022-11-17T20:50:27.363Z,8.15
2022-11-17T20:53:00.291Z,8.22
2022-11-17T20:55:33.199Z,8.28
2022-11-17T20:58:06.286Z,8.39
2022-11-17T21:00:39.749Z,8.51
2022-11-17T21:03:12.764Z,8.68
2022-11-17T21:05:46.032Z,8.82
2022-11-17T21:08:19.678Z,8.92
2022-11-17T21:11:00.694Z,9.03
2022-11-17T21:13:36.110Z,9.16
2022-11-17T21:16:16.964Z,9.32
2022-11-17T21:18:50.747Z,9.44
2022-11-17T21:21:23.859Z,9.52
2022-11-17T21:23:57.543Z,9.62
2022-11-17T21:26:30.793Z,9.71
2022-11-17T21:29:17.233Z,9.77
2022-11-17T21:31:40.030Z,9.84
2022-11-17T21:34:19.278Z,9.89
2022-11-17T21:36:52.152Z,9.94
2022-11-17T21:39:25.171Z,10.00
2022-11-17T21:41:58.439Z,10.03
2022-11-17T21:44:31.715Z,10.05
2022-11-17T21:47:04.923Z,10.08
2022-11-17T21:49:37.833Z,10.11
2022-11-17T21:52:11.731Z,10.12
2022-11-17T21:54:44.644Z,10.13
2022-11-17T21:57:18.270Z,10.17
2022-11-17T21:59:51.216Z,10.17
2022-11-17T22:02:24.118Z,10.20
2022-11-17T22:04:57.317Z,10.20
2022-11-17T22:07:30.953Z,10.22
2022-11-17T22:10:04.536Z,10.23
2022-11-17T22:12:37.577Z,10.25
2022-11-17T22:15:11.897Z,10.27
2022-11-17T22:17:45.184Z,10.30
2022-11-17T22:20:18.279Z,10.30
2022-11-17T22:22:53.626Z,10.31
2022-11-17T22:28:02.255Z,10.34
2022-11-17T22:30:35.539Z,10.37
2022-11-17T22:33:08.699Z,10.37
2022-11-17T22:35:42.172Z,10.38
2022-11-17T22:38:16.340Z,10.39
2022-11-17T22:40:49.222Z,10.39
2022-11-17T22:43:22.176Z,10.41
2022-11-17T22:45:54.936Z,10.41
2022-11-17T22:48:28.359Z,10.44
2022-11-17T22:51:01.836Z,10.45
2022-11-17T22:53:35.537Z,10.46
2022-11-17T22:56:10.338Z,10.47
2022-11-17T22:58:46.684Z,10.48
2022-11-17T23:01:17.803Z,10.49
2022-11-17T23:03:50.828Z,10.50
2022-11-17T23:06:24.543Z,10.51
2022-11-17T23:08:59.756Z,10.54
2022-11-17T23:11:37.450Z,10.55
2022-11-17T23:14:09.167Z,10.57
2022-11-17T23:16:43.224Z,10.55
2022-11-17T23:19:16.678Z,10.54
2022-11-17T23:21:50.201Z,10.52
2022-11-17T23:24:23.269Z,10.48
2022-11-17T23:26:56.058Z,10.45
2022-11-17T23:29:30.410Z,10.37
2022-11-17T23:32:03.359Z,10.29
2022-11-17T23:34:37.475Z,10.23
2022-11-17T23:37:10.401Z,10.17
2022-11-17T23:39:43.529Z,10.00
2022-11-17T23:42:16.347Z,9.78
2022-11-17T23:44:49.056Z,9.57
2022-11-17T23:47:21.802Z,9.42
2022-11-17T23:49:54.660Z,9.22
2022-11-17T23:52:27.672Z,8.93
2022-11-17T23:55:00.566Z,8.65
2022-11-17T23:57:33.406Z,8.33
